createdAt,value
2023-10-09T00:01:15.187Z,17.08
2023-10-09T00:03:44.335Z,10.65
2023-10-09T00:06:15.258Z,9.38
2023-10-09T00:08:46.275Z,9.70
2023-10-09T00:11:20.794Z,12.10
2023-10-09T00:13:58.767Z,15.07
2023-10-09T00:16:36.475Z,16.55
2023-10-09T00:19:20.165Z,15.23
2023-10-09T00:21:47.561Z,13.25
2023-10-09T00:24:17.645Z,7.93
2023-10-09T00:26:47.039Z,10.13
2023-10-09T00:29:16.381Z,8.90
2023-10-09T00:31:51.247Z,8.75
2023-10-09T00:34:23.174Z,14.05
2023-10-09T00:36:55.002Z,15.60
2023-10-09T00:39:46.068Z,9.93
2023-10-09T00:42:15.319Z,16.88
2023-10-09T00:44:43.559Z,12.93
2023-10-09T00:47:22.175Z,11.88
2023-10-09T00:49:49.680Z,14.80
2023-10-09T00:52:32.736Z,13.68
2023-10-09T00:55:05.821Z,11.50
2023-10-09T00:57:38.881Z,16.70
2023-10-09T01:00:14.817Z,22.00
2023-10-09T01:02:45.126Z,14.15
2023-10-09T01:05:21.370Z,17.15
2023-10-09T01:07:49.906Z,19.10
2023-10-09T01:10:17.752Z,10.50
2023-10-09T01:12:47.157Z,17.95
2023-10-09T01:15:37.106Z,18.75
2023-10-09T01:18:06.059Z,13.20
2023-10-09T01:20:42.545Z,22.83
2023-10-09T01:23:11.264Z,18.25
2023-10-09T01:25:50.739Z,29.35
2023-10-09T01:28:19.429Z,16.15
2023-10-09T01:30:48.606Z,19.42
2023-10-09T01:33:27.726Z,23.65
2023-10-09T01:36:00.553Z,26.10
2023-10-09T01:38:33.258Z,29.17
2023-10-09T01:41:09.378Z,18.60
2023-10-09T01:43:36.749Z,25.10
2023-10-09T01:46:06.338Z,24.42
2023-10-09T01:48:40.377Z,29.85
2023-10-09T01:51:10.163Z,23.92
2023-10-09T01:53:39.586Z,30.60
2023-10-09T01:56:15.946Z,24.67
2023-10-09T01:58:48.223Z,23.67
2023-10-09T02:01:17.080Z,23.23
2023-10-09T02:03:44.668Z,31.08
2023-10-09T02:06:28.209Z,31.88
2023-10-09T02:08:57.364Z,38.53
2023-10-09T02:11:37.798Z,30.65
2023-10-09T02:14:20.201Z,34.40
2023-10-09T02:17:03.596Z,32.50
2023-10-09T02:19:35.233Z,36.63
2023-10-09T02:22:15.947Z,32.80
2023-10-09T02:24:49.979Z,42.67
2023-10-09T02:27:47.133Z,37.13
2023-10-09T02:30:28.161Z,33.08
2023-10-09T02:33:07.917Z,42.22
2023-10-09T02:35:44.051Z,36.10
2023-10-09T02:38:15.775Z,34.92
2023-10-09T02:41:03.160Z,34.17
2023-10-09T02:43:46.766Z,36.13
2023-10-09T02:46:22.432Z,40.63
2023-10-09T02:48:53.920Z,37.35
2023-10-09T02:51:28.468Z,48.38
2023-10-09T02:54:00.182Z,37.50
2023-10-09T02:56:48.599Z,39.65
2023-10-09T02:59:16.305Z,36.03
2023-10-09T03:01:43.688Z,43.90
2023-10-09T03:04:20.350Z,40.63
2023-10-09T03:06:58.430Z,46.80
2023-10-09T03:09:29.808Z,40.30
2023-10-09T03:12:04.068Z,37.67
2023-10-09T03:14:33.125Z,46.38
2023-10-09T03:17:00.496Z,42.72
2023-10-09T03:19:31.679Z,49.17
2023-10-09T03:21:59.119Z,44.80
2023-10-09T03:24:29.500Z,41.15
2023-10-09T03:26:57.288Z,47.97
2023-10-09T03:29:25.135Z,46.95
2023-10-09T03:31:52.876Z,44.25
2023-10-09T03:34:20.234Z,49.90
2023-10-09T03:36:49.157Z,53.25
2023-10-09T03:39:35.302Z,48.72
2023-10-09T03:42:06.774Z,49.47
2023-10-09T03:44:36.507Z,48.45
2023-10-09T03:47:03.912Z,49.92
2023-10-09T03:49:31.383Z,53.55
2023-10-09T03:52:00.914Z,45.45
2023-10-09T03:54:31.164Z,59.63
2023-10-09T03:57:00.117Z,44.47
2023-10-09T03:59:33.498Z,48.92
2023-10-09T04:02:01.217Z,55.17
2023-10-09T04:04:30.039Z,51.58
2023-10-09T04:06:57.510Z,57.40
2023-10-09T04:09:24.861Z,53.08
2023-10-09T04:11:58.650Z,69.43
2023-10-09T04:14:33.298Z,52.20
2023-10-09T04:17:07.081Z,58.65
2023-10-09T04:19:49.182Z,58.65
2023-10-09T04:22:29.043Z,57.20
2023-10-09T04:24:58.316Z,48.97
2023-10-09T04:27:37.079Z,58.33
2023-10-09T04:30:08.560Z,65.47
2023-10-09T04:32:36.155Z,50.83
2023-10-09T04:35:25.393Z,46.97
2023-10-09T04:38:06.518Z,47.38
2023-10-09T04:40:51.028Z,62.97
2023-10-09T04:43:24.374Z,56.25
2023-10-09T04:46:10.407Z,52.08
2023-10-09T04:48:40.822Z,47.38
2023-10-09T04:51:34.981Z,46.30
2023-10-09T04:54:14.640Z,45.00
2023-10-09T04:56:54.727Z,47.63
2023-10-09T04:59:26.662Z,44.38
2023-10-09T05:02:00.499Z,48.72
2023-10-09T05:07:46.782Z,40.20
2023-10-09T05:10:18.915Z,47.22
2023-10-09T05:12:58.008Z,46.95
2023-10-09T05:15:31.044Z,43.60
2023-10-09T05:17:58.503Z,57.03
2023-10-09T05:20:28.635Z,48.75
2023-10-09T05:22:59.443Z,42.95
2023-10-09T05:25:45.971Z,38.22
2023-10-09T05:28:32.709Z,42.13
2023-10-09T05:31:09.629Z,40.67
2023-10-09T05:33:40.308Z,41.40
2023-10-09T05:36:28.490Z,41.00
2023-10-09T05:39:14.646Z,37.13
2023-10-09T05:42:01.268Z,42.03
2023-10-09T05:44:48.029Z,42.63
2023-10-09T05:47:30.767Z,32.42
2023-10-09T05:50:04.564Z,35.95
2023-10-09T05:52:41.165Z,33.63
2023-10-09T05:55:20.730Z,29.17
2023-10-09T05:57:57.327Z,33.95
2023-10-09T06:00:43.736Z,41.03
2023-10-09T06:03:20.916Z,27.85
2023-10-09T06:05:58.793Z,30.27
2023-10-09T06:08:42.519Z,24.67
2023-10-09T06:11:30.674Z,36.03
2023-10-09T06:14:05.950Z,25.42
2023-10-09T06:16:53.647Z,30.63
2023-10-09T06:19:24.017Z,39.70
2023-10-09T06:21:54.170Z,36.83
2023-10-09T06:24:24.439Z,27.23
2023-10-09T06:27:01.588Z,36.30
2023-10-09T06:29:44.909Z,36.10
2023-10-09T06:32:27.994Z,26.58
2023-10-09T06:34:58.654Z,28.17
2023-10-09T06:37:26.002Z,23.83
2023-10-09T06:39:56.740Z,19.33
2023-10-09T06:42:40.035Z,29.08
2023-10-09T06:45:17.921Z,30.27
2023-10-09T06:47:57.352Z,34.40
2023-10-09T06:50:48.377Z,28.85
2023-10-09T06:53:17.900Z,25.58
2023-10-09T06:55:52.345Z,28.45
2023-10-09T06:58:29.800Z,27.20
2023-10-09T07:01:01.155Z,31.92
2023-10-09T07:03:36.160Z,33.58
2023-10-09T07:06:26.651Z,33.03
2023-10-09T07:09:07.236Z,35.78
2023-10-09T07:11:41.224Z,31.10
2023-10-09T07:16:58.503Z,39.17
2023-10-09T07:19:36.124Z,30.92
2023-10-09T07:22:17.365Z,37.40
2023-10-09T07:24:45.186Z,29.88
2023-10-09T07:27:16.349Z,30.35
2023-10-09T07:29:50.241Z,26.65
2023-10-09T07:34:54.327Z,25.15
2023-10-09T07:37:24.049Z,30.67
2023-10-09T07:40:00.519Z,24.05
2023-10-09T07:42:45.026Z,31.33
2023-10-09T07:45:22.169Z,33.97
2023-10-09T07:48:03.804Z,33.22
2023-10-09T07:50:42.661Z,25.77
2023-10-09T07:53:16.271Z,27.42
2023-10-09T07:55:55.256Z,21.42
2023-10-09T07:58:26.633Z,30.05
2023-10-09T08:01:17.463Z,22.35
2023-10-09T08:03:50.479Z,28.52
2023-10-09T08:06:41.200Z,30.20
2023-10-09T08:09:21.109Z,22.52
2023-10-09T08:12:10.014Z,27.48
2023-10-09T08:14:44.204Z,21.42
2023-10-09T08:17:18.592Z,20.33
2023-10-09T08:19:54.690Z,22.52
2023-10-09T08:22:29.358Z,24.30
2023-10-09T08:24:57.527Z,20.70
2023-10-09T08:27:31.844Z,22.88
2023-10-09T08:30:18.220Z,26.08
2023-10-09T08:35:37.120Z,27.60
2023-10-09T08:38:11.681Z,39.55
2023-10-09T08:40:44.277Z,26.75
2023-10-09T08:43:15.954Z,31.15
2023-10-09T08:45:47.172Z,40.97
2023-10-09T08:48:19.122Z,26.45
2023-10-09T08:50:47.974Z,26.35
2023-10-09T08:53:17.332Z,30.67
2023-10-09T08:55:45.318Z,30.90
2023-10-09T08:58:33.866Z,25.05
2023-10-09T09:01:02.133Z,38.30
2023-10-09T09:03:39.795Z,23.60
2023-10-09T09:06:07.390Z,22.38
2023-10-09T09:08:38.176Z,17.25
2023-10-09T09:11:13.658Z,27.20
2023-10-09T09:13:49.769Z,24.70
2023-10-09T09:16:18.240Z,28.92
2023-10-09T09:18:53.391Z,32.40
2023-10-09T09:21:23.495Z,25.98
2023-10-09T09:24:16.134Z,14.30
2023-10-09T09:26:47.219Z,21.55
2023-10-09T09:29:15.601Z,30.38
2023-10-09T09:31:58.837Z,11.80
2023-10-09T09:34:30.286Z,19.00
2023-10-09T09:36:59.381Z,25.63
2023-10-09T09:39:41.919Z,31.48
2023-10-09T09:42:16.332Z,24.83
2023-10-09T09:44:50.005Z,26.05
2023-10-09T09:47:31.955Z,24.13
2023-10-09T09:50:02.709Z,25.25
2023-10-09T09:52:40.384Z,27.30
2023-10-09T09:55:18.712Z,24.67
2023-10-09T09:57:47.160Z,25.27
2023-10-09T10:00:30.685Z,24.42
2023-10-09T10:03:00.440Z,19.77
2023-10-09T10:05:31.130Z,18.23
2023-10-09T10:08:01.893Z,17.77
2023-10-09T10:10:40.754Z,21.20
2023-10-09T10:13:15.914Z,17.88
2023-10-09T10:15:59.691Z,24.77
2023-10-09T10:18:33.452Z,17.27
2023-10-09T10:21:30.148Z,19.08
2023-10-09T10:24:09.608Z,14.68
2023-10-09T10:26:37.819Z,20.02
2023-10-09T10:29:25.317Z,26.23
2023-10-09T10:31:56.281Z,20.20
2023-10-09T10:34:25.220Z,26.48
2023-10-09T10:36:59.424Z,25.88
2023-10-09T10:39:46.378Z,23.77
2023-10-09T10:42:36.761Z,17.33
2023-10-09T10:45:24.546Z,18.40
2023-10-09T10:47:57.323Z,20.83
2023-10-09T10:50:30.912Z,22.20
2023-10-09T10:53:17.292Z,24.42
2023-10-09T10:56:26.747Z,19.30
2023-10-09T10:59:07.257Z,26.58
2023-10-09T11:01:53.990Z,29.85
2023-10-09T11:04:31.376Z,24.45
2023-10-09T11:07:07.841Z,16.35
2023-10-09T11:09:59.597Z,25.50
2023-10-09T11:12:41.028Z,25.02
2023-10-09T11:15:28.990Z,18.30
2023-10-09T11:18:14.420Z,33.55
2023-10-09T11:20:55.094Z,24.80
2023-10-09T11:23:37.228Z,21.00
2023-10-09T11:26:24.294Z,20.90
2023-10-09T11:29:19.490Z,19.77
2023-10-09T11:32:03.349Z,19.38
2023-10-09T11:34:32.623Z,15.40
2023-10-09T11:37:32.572Z,21.08
2023-10-09T11:40:01.444Z,25.60
2023-10-09T11:42:47.975Z,21.13
2023-10-09T11:45:55.488Z,23.42
2023-10-09T11:48:34.996Z,18.42
2023-10-09T11:51:20.239Z,16.17
2023-10-09T11:53:51.097Z,16.77
2023-10-09T11:56:21.035Z,28.73
2023-10-09T11:58:52.368Z,25.13
2023-10-09T12:01:22.654Z,19.65
2023-10-09T12:03:54.943Z,17.50
2023-10-09T12:06:31.163Z,26.05
2023-10-09T12:09:00.195Z,14.50
2023-10-09T12:11:30.840Z,18.33
2023-10-09T12:13:59.150Z,17.58
2023-10-09T12:16:30.421Z,21.88
2023-10-09T12:18:58.521Z,18.90
2023-10-09T12:21:29.340Z,12.20
2023-10-09T12:23:59.254Z,19.33
2023-10-09T12:26:29.076Z,14.38
2023-10-09T12:28:59.086Z,13.00
2023-10-09T12:31:26.592Z,21.20
2023-10-09T12:33:53.967Z,13.48
2023-10-09T12:36:21.797Z,21.95
2023-10-09T12:38:53.928Z,11.93
2023-10-09T12:41:27.138Z,14.57
2023-10-09T12:43:55.103Z,9.30
2023-10-09T12:46:27.170Z,8.27
2023-10-09T12:48:58.875Z,10.48
2023-10-09T12:51:32.182Z,17.90
2023-10-09T12:54:02.245Z,11.02
2023-10-09T12:56:39.544Z,9.73
2023-10-09T12:59:08.625Z,13.68
2023-10-09T13:01:45.600Z,13.35
2023-10-09T13:04:19.166Z,14.75
2023-10-09T13:06:47.478Z,20.15
2023-10-09T13:09:15.718Z,13.23
2023-10-09T13:11:44.027Z,8.68
2023-10-09T13:14:24.031Z,16.60
2023-10-09T13:16:51.872Z,15.20
2023-10-09T13:19:19.396Z,11.48
2023-10-09T13:21:47.494Z,11.85
2023-10-09T13:24:16.956Z,9.82
2023-10-09T13:26:52.599Z,10.32
2023-10-09T13:29:26.301Z,14.80
2023-10-09T13:34:29.525Z,14.68
2023-10-09T13:37:00.513Z,7.90
2023-10-09T13:39:28.543Z,15.02
2023-10-09T13:42:08.475Z,16.50
2023-10-09T13:44:38.481Z,9.18
2023-10-09T13:47:07.812Z,9.88
2023-10-09T13:49:35.612Z,10.45
2023-10-09T13:52:04.654Z,21.20
2023-10-09T13:54:35.609Z,7.35
2023-10-09T13:57:07.357Z,22.63
2023-10-09T13:59:44.402Z,9.90
2023-10-09T14:02:18.293Z,16.42
2023-10-09T14:04:48.391Z,10.23
2023-10-09T14:07:21.815Z,12.70
2023-10-09T14:10:08.785Z,12.75
2023-10-09T14:12:41.245Z,16.48
2023-10-09T14:15:12.366Z,10.38
2023-10-09T14:17:43.800Z,12.00
2023-10-09T14:20:31.728Z,10.82
2023-10-09T14:23:10.270Z,8.52
2023-10-09T14:25:41.257Z,16.65
2023-10-09T14:28:09.224Z,10.60
2023-10-09T14:30:43.134Z,13.27
2023-10-09T14:33:14.592Z,11.38
2023-10-09T14:35:43.043Z,10.90
2023-10-09T14:38:13.520Z,10.80
2023-10-09T14:40:45.366Z,10.18
2023-10-09T14:43:28.948Z,12.98
2023-10-09T14:45:56.766Z,6.95
2023-10-09T14:48:38.442Z,10.55
2023-10-09T14:51:07.003Z,10.23
2023-10-09T14:53:37.444Z,15.68
2023-10-09T14:56:11.119Z,9.82
2023-10-09T14:58:41.018Z,13.25
2023-10-09T15:01:16.720Z,8.68
2023-10-09T15:03:49.303Z,18.58
2023-10-09T15:06:18.307Z,14.40
2023-10-09T15:08:47.915Z,13.50
2023-10-09T15:11:18.341Z,21.38
2023-10-09T15:13:45.899Z,17.70
2023-10-09T15:16:14.772Z,15.68
2023-10-09T15:18:42.116Z,12.75
2023-10-09T15:21:09.985Z,13.52
2023-10-09T15:23:37.494Z,12.10
2023-10-09T15:26:08.041Z,13.52
2023-10-09T15:28:35.789Z,13.85
2023-10-09T15:31:05.010Z,14.57
2023-10-09T15:33:35.820Z,16.15
2023-10-09T15:36:12.285Z,27.45
2023-10-09T15:38:39.614Z,11.18
2023-10-09T15:41:09.948Z,15.70
2023-10-09T15:43:38.406Z,13.40
2023-10-09T15:46:12.279Z,19.55
2023-10-09T15:51:13.161Z,9.82
2023-10-09T15:53:40.758Z,9.77
2023-10-09T15:56:08.570Z,19.02
2023-10-09T15:58:36.147Z,16.13
2023-10-09T16:01:03.969Z,9.73
2023-10-09T16:03:31.370Z,15.55
2023-10-09T16:06:00.305Z,19.35
2023-10-09T16:08:29.154Z,7.80
2023-10-09T16:10:56.601Z,10.23
2023-10-09T16:13:24.228Z,10.32
2023-10-09T16:15:51.620Z,10.13
2023-10-09T16:18:21.808Z,6.65
2023-10-09T16:20:50.366Z,5.93
2023-10-09T16:23:21.154Z,5.55
2023-10-09T16:25:48.659Z,6.95
2023-10-09T16:28:16.910Z,6.15
2023-10-09T16:30:44.538Z,11.35
2023-10-09T16:33:12.485Z,7.35
2023-10-09T16:35:42.309Z,10.25
2023-10-09T16:38:14.067Z,14.07
2023-10-09T16:40:48.063Z,5.60
2023-10-09T16:43:15.817Z,9.48
2023-10-09T16:45:44.922Z,4.82
2023-10-09T16:48:16.307Z,4.20
2023-10-09T16:50:47.932Z,15.27
2023-10-09T16:53:17.642Z,7.78
2023-10-09T16:55:45.063Z,9.55
2023-10-09T16:58:14.008Z,6.68
2023-10-09T17:00:41.775Z,11.20
2023-10-09T17:03:09.609Z,3.85
2023-10-09T17:05:52.376Z,7.63
2023-10-09T17:08:20.855Z,7.00
2023-10-09T17:10:52.367Z,7.07
2023-10-09T17:13:22.158Z,10.60
2023-10-09T17:15:54.509Z,9.82
2023-10-09T17:18:23.206Z,12.70
2023-10-09T17:20:50.604Z,9.55
2023-10-09T17:23:18.264Z,5.88
2023-10-09T17:25:46.722Z,17.42
2023-10-09T17:28:23.534Z,12.68
2023-10-09T17:30:50.923Z,19.13
2023-10-09T17:33:20.240Z,8.00
2023-10-09T17:35:48.300Z,9.52
2023-10-09T17:38:19.949Z,18.55
2023-10-09T17:40:52.868Z,5.70
2023-10-09T17:43:25.738Z,7.53
2023-10-09T17:45:56.012Z,11.40
2023-10-09T17:48:23.782Z,9.20
2023-10-09T17:50:51.470Z,7.95
2023-10-09T17:53:19.197Z,11.13
2023-10-09T17:55:47.716Z,7.75
2023-10-09T17:58:15.213Z,10.25
2023-10-09T18:00:43.484Z,11.50
2023-10-09T18:03:16.169Z,7.45
2023-10-09T18:05:44.028Z,7.22
2023-10-09T18:08:15.787Z,8.50
2023-10-09T18:10:44.766Z,7.10
2023-10-09T18:13:12.527Z,6.85
2023-10-09T18:15:39.803Z,4.68
2023-10-09T18:18:10.600Z,7.25
2023-10-09T18:20:44.605Z,7.35
2023-10-09T18:25:41.424Z,13.75
2023-10-09T18:28:08.792Z,8.27
2023-10-09T18:30:40.440Z,16.83
2023-10-09T18:33:07.969Z,15.45
2023-10-09T18:35:35.635Z,6.97
2023-10-09T18:38:06.003Z,13.15
2023-10-09T18:40:33.666Z,10.52
2023-10-09T18:43:01.040Z,14.00
2023-10-09T18:45:31.619Z,11.50
2023-10-09T18:47:58.961Z,7.43
2023-10-09T18:50:26.305Z,8.95
2023-10-09T18:52:53.620Z,8.60
2023-10-09T18:55:21.832Z,7.97
2023-10-09T18:57:49.263Z,11.13
2023-10-09T19:00:31.255Z,14.55
2023-10-09T19:03:01.033Z,9.25
2023-10-09T19:05:28.871Z,8.40
2023-10-09T19:07:56.353Z,7.60
2023-10-09T19:10:23.749Z,9.48
2023-10-09T19:12:53.635Z,10.55
2023-10-09T19:15:21.264Z,11.27
2023-10-09T19:17:48.748Z,9.43
2023-10-09T19:20:18.200Z,10.25
2023-10-09T19:22:45.808Z,12.32
2023-10-09T19:25:17.639Z,7.28
2023-10-09T19:27:51.202Z,7.90
2023-10-09T19:30:18.580Z,11.13
2023-10-09T19:32:48.517Z,6.75
2023-10-09T19:35:22.203Z,6.32
2023-10-09T19:37:51.270Z,7.82
2023-10-09T19:40:19.000Z,4.50
2023-10-09T19:42:46.344Z,12.48
2023-10-09T19:45:20.740Z,10.63
2023-10-09T19:47:51.218Z,13.07
2023-10-09T19:50:18.805Z,8.73
2023-10-09T19:52:46.834Z,11.52
2023-10-09T19:55:14.260Z,15.88
2023-10-09T19:57:43.650Z,9.18
2023-10-09T20:00:16.409Z,8.68
2023-10-09T20:02:44.079Z,12.95
2023-10-09T20:05:17.352Z,12.57
2023-10-09T20:07:44.781Z,16.63
2023-10-09T20:10:12.247Z,14.20
2023-10-09T20:12:42.356Z,16.02
2023-10-09T20:15:14.580Z,9.32
2023-10-09T20:17:45.536Z,7.47
2023-10-09T20:20:13.478Z,9.77
2023-10-09T20:22:41.341Z,15.32
2023-10-09T20:25:14.142Z,19.85
2023-10-09T20:27:43.345Z,34.65
2023-10-09T20:30:12.462Z,12.43
2023-10-09T20:32:41.644Z,9.10
2023-10-09T20:35:13.092Z,12.80
2023-10-09T20:37:44.330Z,10.85
2023-10-09T20:40:19.359Z,10.73
2023-10-09T20:42:48.578Z,16.10
2023-10-09T20:45:16.229Z,14.68
2023-10-09T20:47:47.048Z,7.13
2023-10-09T20:50:17.917Z,7.10
2023-10-09T20:52:46.099Z,16.95
2023-10-09T20:55:16.764Z,9.00
2023-10-09T20:57:44.140Z,8.68
2023-10-09T21:00:20.249Z,11.35
2023-10-09T21:02:54.424Z,15.95
2023-10-09T21:05:24.438Z,9.38
2023-10-09T21:07:54.245Z,13.45
2023-10-09T21:10:23.003Z,11.95
2023-10-09T21:12:51.259Z,6.38
2023-10-09T21:15:19.386Z,5.57
2023-10-09T21:17:46.994Z,18.48
2023-10-09T21:20:18.324Z,12.90
2023-10-09T21:22:56.222Z,8.45
2023-10-09T21:25:24.523Z,13.90
2023-10-09T21:27:55.645Z,9.70
2023-10-09T21:30:24.689Z,7.30
2023-10-09T21:32:55.188Z,9.38
2023-10-09T21:35:23.529Z,16.83
2023-10-09T21:37:54.895Z,7.20
2023-10-09T21:40:32.016Z,9.90
2023-10-09T21:43:00.371Z,6.15
2023-10-09T21:45:28.335Z,11.93
2023-10-09T21:47:59.079Z,12.98
2023-10-09T21:50:27.348Z,10.48
2023-10-09T21:52:58.960Z,12.23
2023-10-09T21:55:28.479Z,8.95
2023-10-09T21:57:56.391Z,10.30
2023-10-09T22:00:33.693Z,9.77
2023-10-09T22:03:11.715Z,7.55
2023-10-09T22:05:45.913Z,13.40
2023-10-09T22:08:14.397Z,7.78
2023-10-09T22:10:42.241Z,13.90
2023-10-09T22:13:12.118Z,16.65
2023-10-09T22:15:39.528Z,14.15
2023-10-09T22:18:12.565Z,8.77
2023-10-09T22:20:40.655Z,12.48
2023-10-09T22:23:14.847Z,8.75
2023-10-09T22:25:46.393Z,19.90
2023-10-09T22:28:13.944Z,7.90
2023-10-09T22:30:44.390Z,9.98
2023-10-09T22:33:21.248Z,11.40
2023-10-09T22:35:48.979Z,10.30
2023-10-09T22:38:21.832Z,8.18
2023-10-09T22:40:50.094Z,12.93
2023-10-09T22:43:21.661Z,11.18
2023-10-09T22:45:53.261Z,15.18
2023-10-09T22:48:27.940Z,21.80
2023-10-09T22:51:11.131Z,13.80
2023-10-09T22:53:40.254Z,17.38
2023-10-09T22:56:14.141Z,11.13
2023-10-09T23:01:24.110Z,10.20
2023-10-09T23:04:10.693Z,22.98
2023-10-09T23:06:45.303Z,24.95
2023-10-09T23:09:17.449Z,9.68
2023-10-09T23:11:55.433Z,14.23
2023-10-09T23:14:28.273Z,7.63
2023-10-09T23:17:06.882Z,8.52
2023-10-09T23:19:40.617Z,17.58
2023-10-09T23:22:14.327Z,8.55
2023-10-09T23:24:50.977Z,12.40
2023-10-09T23:27:40.012Z,14.75
2023-10-09T23:30:10.628Z,21.75
2023-10-09T23:32:38.168Z,12.05
2023-10-09T23:35:05.827Z,22.38
2023-10-09T23:37:39.633Z,13.07
2023-10-09T23:40:14.350Z,13.98
2023-10-09T23:42:58.519Z,12.65
2023-10-09T23:45:32.473Z,11.15
2023-10-09T23:50:42.269Z,11.57
2023-10-09T23:53:10.084Z,11.75
2023-10-09T23:55:43.253Z,11.77
2023-10-09T23:58:18.046Z,17.70
